CCA3408 ZUCK-ZLXY
Flight info
| Callsign | CCA3408 |
|---|---|
| Flight time | N/A |
| Altitude | 32000 |
| Route | ZUCK PIGOL W550 GAO W26 OGOMO W29 SUBUL G212 NSH ZLXY |
| Aircraft | A320/M-SDE1GH/LB1 |
Departure
| Time | 2026-04-23 12:54 |
|---|---|
| Airport | Chongqing Jiangbei International Airport (ZUCK) |
Arrival
| Time | N/A |
|---|---|
| Airport | Xi'an Xianyang International Airport (ZLXY) |
| Time | Latitude | Longitude | Altitude | Speed | Heading |
|---|---|---|---|---|---|
| 2026-04-23 12:46 | 29.71561 | 106.63642 | 1374 ft | 0 kts | 259° |
| 2026-04-23 12:47 | 29.71567 | 106.63680 | 1374 ft | 6 kts | 257° |
| 2026-04-23 12:47 | 29.71576 | 106.63715 | 1369 ft | 3 kts | 245° |
| 2026-04-23 12:47 | 29.71583 | 106.63729 | 1369 ft | 2 kts | 225° |
| 2026-04-23 12:48 | 29.71592 | 106.63737 | 1372 ft | 2 kts | 206° |
| 2026-04-23 12:48 | 29.71602 | 106.63742 | 1373 ft | 2 kts | 199° |
| 2026-04-23 12:48 | 29.71610 | 106.63745 | 1370 ft | 0 kts | 197° |
| 2026-04-23 12:49 | 29.71609 | 106.63744 | 1370 ft | 1 kts | 197° |
| 2026-04-23 12:49 | 29.71598 | 106.63740 | 1373 ft | 4 kts | 197° |
| 2026-04-23 12:49 | 29.71560 | 106.63726 | 1373 ft | 8 kts | 198° |
| 2026-04-23 12:49 | 29.71484 | 106.63699 | 1372 ft | 13 kts | 197° |
| 2026-04-23 12:50 | 29.71394 | 106.63672 | 1374 ft | 14 kts | 177° |
| 2026-04-23 12:50 | 29.71320 | 106.63730 | 1374 ft | 13 kts | 182° |
| 2026-04-23 12:50 | 29.71212 | 106.63695 | 1371 ft | 19 kts | 197° |
| 2026-04-23 12:50 | 29.71066 | 106.63643 | 1372 ft | 25 kts | 197° |
| 2026-04-23 12:51 | 29.70931 | 106.63594 | 1374 ft | 29 kts | 196° |
| 2026-04-23 12:51 | 29.70738 | 106.63531 | 1373 ft | 32 kts | 197° |
| 2026-04-23 12:51 | 29.70589 | 106.63488 | 1372 ft | 8 kts | 155° |
| 2026-04-23 12:51 | 29.70562 | 106.63557 | 1373 ft | 10 kts | 105° |
| 2026-04-23 12:52 | 29.70555 | 106.63584 | 1374 ft | 0 kts | 106° |
| 2026-04-23 12:53 | 29.70553 | 106.63593 | 1372 ft | 5 kts | 106° |
| 2026-04-23 12:53 | 29.70548 | 106.63668 | 1374 ft | 12 kts | 50° |
| 2026-04-23 12:53 | 29.70611 | 106.63699 | 1373 ft | 5 kts | 16° |
| 2026-04-23 12:53 | 29.70703 | 106.63732 | 1372 ft | 48 kts | 17° |
| 2026-04-23 12:54 | 29.71302 | 106.63940 | 1371 ft | 130 kts | 17° |
| 2026-04-23 12:54 | 29.72379 | 106.64307 | 1702 ft | 177 kts | 16° |
| 2026-04-23 12:54 | 29.73603 | 106.64719 | 2488 ft | 194 kts | 16° |
| 2026-04-23 12:54 | 29.74959 | 106.65175 | 3097 ft | 215 kts | 16° |
| 2026-04-23 12:55 | 29.76461 | 106.65579 | 3772 ft | 229 kts | 5° |
| 2026-04-23 12:55 | 29.78091 | 106.65272 | 4453 ft | 249 kts | 341° |
| 2026-04-23 12:55 | 29.79811 | 106.64559 | 5125 ft | 270 kts | 340° |
| 2026-04-23 12:55 | 29.81571 | 106.63831 | 5825 ft | 270 kts | 341° |
| 2026-04-23 12:56 | 29.83359 | 106.63116 | 6585 ft | 274 kts | 341° |
| 2026-04-23 12:56 | 29.85168 | 106.62401 | 7396 ft | 277 kts | 341° |
| 2026-04-23 12:56 | 29.87013 | 106.61665 | 8242 ft | 281 kts | 341° |
| 2026-04-23 12:56 | 29.88858 | 106.60924 | 9096 ft | 283 kts | 341° |
| 2026-04-23 12:57 | 29.90733 | 106.60171 | 9947 ft | 287 kts | 341° |
| 2026-04-23 12:57 | 29.92648 | 106.59403 | 10819 ft | 297 kts | 341° |
| 2026-04-23 12:57 | 29.94631 | 106.58610 | 11765 ft | 305 kts | 341° |
| 2026-04-23 12:57 | 29.96654 | 106.57800 | 12764 ft | 310 kts | 341° |
| 2026-04-23 12:58 | 29.98699 | 106.56979 | 13789 ft | 312 kts | 341° |
| 2026-04-23 12:58 | 30.00753 | 106.56153 | 14848 ft | 312 kts | 341° |
| 2026-04-23 12:58 | 30.02832 | 106.55432 | 15860 ft | 312 kts | 350° |
| 2026-04-23 12:58 | 30.04978 | 106.55366 | 16909 ft | 309 kts | 8° |
| 2026-04-23 12:59 | 30.07020 | 106.56111 | 17838 ft | 308 kts | 25° |
| 2026-04-23 12:59 | 30.08953 | 106.57150 | 18817 ft | 304 kts | 25° |
| 2026-04-23 12:59 | 30.10864 | 106.58156 | 19804 ft | 299 kts | 24° |
| 2026-04-23 12:59 | 30.12745 | 106.59128 | 20705 ft | 296 kts | 24° |
| 2026-04-23 13:00 | 30.14638 | 106.60103 | 21398 ft | 299 kts | 24° |
| 2026-04-23 13:00 | 30.16534 | 106.61088 | 22153 ft | 298 kts | 24° |
| 2026-04-23 13:00 | 30.18411 | 106.62067 | 22936 ft | 295 kts | 24° |
| 2026-04-23 13:00 | 30.20294 | 106.63047 | 23560 ft | 297 kts | 24° |
| 2026-04-23 13:01 | 30.22151 | 106.64011 | 24235 ft | 296 kts | 24° |
| 2026-04-23 13:01 | 30.24023 | 106.64959 | 24946 ft | 292 kts | 23° |
| 2026-04-23 13:01 | 30.25864 | 106.65883 | 25657 ft | 287 kts | 23° |
| 2026-04-23 13:01 | 30.27712 | 106.66807 | 26138 ft | 290 kts | 23° |
| 2026-04-23 13:02 | 30.29559 | 106.67731 | 26682 ft | 288 kts | 23° |
| 2026-04-23 13:02 | 30.31391 | 106.68644 | 27296 ft | 284 kts | 23° |
| 2026-04-23 13:02 | 30.33180 | 106.69534 | 27941 ft | 275 kts | 23° |
| 2026-04-23 13:02 | 30.34934 | 106.70407 | 28365 ft | 278 kts | 23° |
| 2026-04-23 13:03 | 30.36752 | 106.71313 | 28462 ft | 290 kts | 23° |
| 2026-04-23 13:03 | 30.38696 | 106.72038 | 28673 ft | 298 kts | 8° |
| 2026-04-23 13:03 | 30.40782 | 106.72118 | 28969 ft | 303 kts | 351° |
| 2026-04-23 13:03 | 30.42867 | 106.71693 | 29352 ft | 305 kts | 349° |
| 2026-04-23 13:04 | 30.44964 | 106.71234 | 29725 ft | 308 kts | 349° |
| 2026-04-23 13:04 | 30.47075 | 106.70781 | 30147 ft | 308 kts | 349° |
| 2026-04-23 13:04 | 30.49214 | 106.70331 | 30297 ft | 320 kts | 349° |
| 2026-04-23 13:04 | 30.51466 | 106.69856 | 30289 ft | 337 kts | 349° |
| 2026-04-23 13:05 | 30.53823 | 106.69353 | 30347 ft | 351 kts | 349° |
| 2026-04-23 13:05 | 30.56269 | 106.68830 | 30470 ft | 363 kts | 349° |
| 2026-04-23 13:05 | 30.58794 | 106.68291 | 30581 ft | 376 kts | 349° |
| 2026-04-23 13:05 | 30.61409 | 106.67734 | 30632 ft | 389 kts | 349° |
| 2026-04-23 13:06 | 30.66920 | 106.66560 | 30757 ft | 415 kts | 349° |
| 2026-04-23 13:06 | 30.69763 | 106.65953 | 30788 ft | 427 kts | 349° |
| 2026-04-23 13:06 | 30.72725 | 106.65320 | 30817 ft | 439 kts | 349° |
| 2026-04-23 13:07 | 30.75774 | 106.64669 | 30826 ft | 451 kts | 349° |
| 2026-04-23 13:07 | 30.78898 | 106.64001 | 30855 ft | 462 kts | 349° |
| 2026-04-23 13:07 | 30.82053 | 106.63327 | 30803 ft | 458 kts | 349° |
| 2026-04-23 13:08 | 30.88316 | 106.61987 | 30696 ft | 460 kts | 349° |
| 2026-04-23 13:08 | 30.94636 | 106.60635 | 30638 ft | 463 kts | 349° |
| 2026-04-23 13:09 | 31.00973 | 106.59441 | 30549 ft | 461 kts | 356° |
| 2026-04-23 13:09 | 31.07391 | 106.59450 | 30486 ft | 461 kts | 0° |
| 2026-04-23 13:10 | 31.13804 | 106.59470 | 30398 ft | 461 kts | 0° |
| 2026-04-23 13:10 | 31.19143 | 106.59487 | 30329 ft | 462 kts | 0° |
| 2026-04-23 13:11 | 31.25566 | 106.59511 | 30240 ft | 461 kts | 0° |
| 2026-04-23 13:11 | 31.32003 | 106.59534 | 30145 ft | 463 kts | 0° |
| 2026-04-23 13:12 | 31.38444 | 106.59557 | 30053 ft | 463 kts | 0° |
| 2026-04-23 13:12 | 31.44891 | 106.59580 | 29953 ft | 464 kts | 0° |
| 2026-04-23 13:13 | 31.51333 | 106.59603 | 29852 ft | 462 kts | 0° |
| 2026-04-23 13:13 | 31.57787 | 106.59626 | 29747 ft | 464 kts | 0° |
| 2026-04-23 13:14 | 31.64226 | 106.59649 | 29636 ft | 463 kts | 0° |
| 2026-04-23 13:14 | 31.70675 | 106.59673 | 29538 ft | 464 kts | 0° |
| 2026-04-23 13:14 | 31.73890 | 106.59497 | 29468 ft | 464 kts | 349° |
| 2026-04-23 13:15 | 31.76892 | 106.58157 | 29373 ft | 464 kts | 328° |
| 2026-04-23 13:15 | 31.79391 | 106.55790 | 29307 ft | 463 kts | 313° |
| 2026-04-23 13:15 | 31.81143 | 106.52637 | 29162 ft | 466 kts | 290° |
| 2026-04-23 13:15 | 31.81473 | 106.48849 | 28288 ft | 474 kts | 262° |
| 2026-04-23 13:16 | 31.80519 | 106.45156 | 27059 ft | 471 kts | 249° |
| 2026-04-23 13:16 | 31.79342 | 106.41582 | 25886 ft | 467 kts | 249° |
| 2026-04-23 13:16 | 31.78193 | 106.38035 | 24951 ft | 459 kts | 249° |
| 2026-04-23 13:16 | 31.77075 | 106.34563 | 24607 ft | 452 kts | 249° |
| 2026-04-23 13:17 | 31.75973 | 106.31146 | 24310 ft | 456 kts | 249° |
| 2026-04-23 13:17 | 31.74843 | 106.27664 | 23985 ft | 455 kts | 249° |
| 2026-04-23 13:17 | 31.73713 | 106.24210 | 23664 ft | 452 kts | 249° |
| 2026-04-23 13:17 | 31.72584 | 106.20768 | 23346 ft | 451 kts | 249° |
| 2026-04-23 13:18 | 31.71458 | 106.17341 | 23041 ft | 449 kts | 249° |
| 2026-04-23 13:18 | 31.70336 | 106.13932 | 22733 ft | 446 kts | 249° |
| 2026-04-23 13:18 | 31.69222 | 106.10542 | 22443 ft | 444 kts | 249° |
| 2026-04-23 13:18 | 31.68113 | 106.07167 | 22151 ft | 441 kts | 249° |
| 2026-04-23 13:19 | 31.67010 | 106.03813 | 21853 ft | 440 kts | 249° |
| 2026-04-23 13:19 | 31.65908 | 106.00464 | 21575 ft | 439 kts | 249° |
| 2026-04-23 13:19 | 31.64804 | 105.97109 | 21291 ft | 448 kts | 249° |
| 2026-04-23 13:19 | 31.63653 | 105.93612 | 21000 ft | 470 kts | 249° |
| 2026-04-23 13:20 | 31.62450 | 105.89956 | 20730 ft | 490 kts | 249° |
| 2026-04-23 13:20 | 31.61198 | 105.86151 | 20428 ft | 508 kts | 249° |
| 2026-04-23 13:20 | 31.59911 | 105.82242 | 20103 ft | 521 kts | 249° |
| 2026-04-23 13:20 | 31.58593 | 105.78240 | 19784 ft | 527 kts | 249° |
| 2026-04-23 13:21 | 31.57271 | 105.74224 | 19435 ft | 529 kts | 249° |
| 2026-04-23 13:21 | 31.55964 | 105.70253 | 19086 ft | 529 kts | 249° |
| 2026-04-23 13:21 | 31.54640 | 105.66229 | 18739 ft | 529 kts | 249° |
| 2026-04-23 13:21 | 31.53314 | 105.62205 | 18401 ft | 530 kts | 249° |
| 2026-04-23 13:22 | 31.51982 | 105.58164 | 18070 ft | 531 kts | 249° |
| 2026-04-23 13:22 | 31.50651 | 105.54126 | 17749 ft | 531 kts | 249° |
| 2026-04-23 13:22 | 31.49319 | 105.50083 | 17440 ft | 533 kts | 249° |
| 2026-04-23 13:22 | 31.47986 | 105.46035 | 17129 ft | 534 kts | 249° |
| 2026-04-23 13:23 | 31.46650 | 105.41977 | 16833 ft | 534 kts | 249° |
| 2026-04-23 13:23 | 31.45322 | 105.37919 | 16669 ft | 534 kts | 249° |
| 2026-04-23 13:23 | 31.44318 | 105.33736 | 16481 ft | 534 kts | 258° |
| 2026-04-23 13:23 | 31.43884 | 105.29419 | 16296 ft | 534 kts | 268° |
| 2026-04-23 13:24 | 31.44004 | 105.25078 | 16161 ft | 534 kts | 272° |
| 2026-04-23 13:24 | 31.44163 | 105.20729 | 16033 ft | 535 kts | 272° |
| 2026-04-23 13:24 | 31.44300 | 105.16376 | 15882 ft | 535 kts | 272° |
| 2026-04-23 13:24 | 31.44429 | 105.12020 | 15724 ft | 535 kts | 272° |
| 2026-04-23 13:25 | 31.44561 | 105.07669 | 15566 ft | 535 kts | 272° |
| 2026-04-23 13:25 | 31.44698 | 105.03309 | 15412 ft | 536 kts | 272° |
| 2026-04-23 13:25 | 31.44837 | 104.98951 | 15264 ft | 536 kts | 272° |
| 2026-04-23 13:25 | 31.44972 | 104.94586 | 15120 ft | 536 kts | 272° |
| 2026-04-23 13:26 | 31.45106 | 104.90223 | 14979 ft | 537 kts | 272° |
| 2026-04-23 13:26 | 31.45224 | 104.85858 | 14837 ft | 527 kts | 271° |
| 2026-04-23 13:26 | 31.44682 | 104.81895 | 14654 ft | 467 kts | 251° |
| 2026-04-23 13:26 | 31.43178 | 104.78772 | 14524 ft | 420 kts | 231° |
| 2026-04-23 13:27 | 31.41127 | 104.76563 | 14410 ft | 391 kts | 218° |
| 2026-04-23 13:27 | 31.38970 | 104.74604 | 14321 ft | 395 kts | 218° |
| 2026-04-23 13:27 | 31.36813 | 104.72610 | 14098 ft | 393 kts | 218° |
| 2026-04-23 13:27 | 31.34688 | 104.70618 | 13860 ft | 391 kts | 219° |
| 2026-04-23 13:28 | 31.32565 | 104.68630 | 13648 ft | 391 kts | 218° |
| 2026-04-23 13:28 | 31.30474 | 104.66678 | 13452 ft | 389 kts | 218° |
| 2026-04-23 13:28 | 31.28365 | 104.64707 | 13251 ft | 388 kts | 219° |
| 2026-04-23 13:28 | 31.26260 | 104.62737 | 13058 ft | 387 kts | 219° |
| 2026-04-23 13:29 | 31.24159 | 104.60772 | 12881 ft | 386 kts | 219° |
| 2026-04-23 13:29 | 31.22066 | 104.58818 | 12702 ft | 385 kts | 218° |
| 2026-04-23 13:29 | 31.19975 | 104.56866 | 12526 ft | 384 kts | 218° |
| 2026-04-23 13:29 | 31.17892 | 104.54921 | 12362 ft | 383 kts | 219° |
| 2026-04-23 13:30 | 31.15814 | 104.52980 | 12189 ft | 383 kts | 219° |
| 2026-04-23 13:30 | 31.13735 | 104.51038 | 12027 ft | 383 kts | 218° |
| 2026-04-23 13:30 | 31.11663 | 104.49105 | 11872 ft | 380 kts | 218° |
| 2026-04-23 13:30 | 31.09597 | 104.47178 | 11703 ft | 380 kts | 218° |
| 2026-04-23 13:31 | 31.07535 | 104.45255 | 11578 ft | 379 kts | 218° |
| 2026-04-23 13:31 | 31.05473 | 104.43346 | 11420 ft | 378 kts | 216° |
| 2026-04-23 13:31 | 31.03127 | 104.42007 | 11247 ft | 377 kts | 196° |
| 2026-04-23 13:31 | 31.00557 | 104.41630 | 11143 ft | 375 kts | 181° |
| 2026-04-23 13:32 | 30.97942 | 104.41642 | 11066 ft | 377 kts | 179° |
| 2026-04-23 13:32 | 30.95327 | 104.41653 | 10950 ft | 375 kts | 180° |
| 2026-04-23 13:32 | 30.92718 | 104.41648 | 10817 ft | 374 kts | 180° |
| 2026-04-23 13:32 | 30.90115 | 104.41645 | 10690 ft | 374 kts | 180° |
| 2026-04-23 13:33 | 30.87516 | 104.41647 | 10565 ft | 373 kts | 180° |
| 2026-04-23 13:33 | 30.84919 | 104.41654 | 10445 ft | 372 kts | 180° |
| 2026-04-23 13:33 | 30.82331 | 104.41574 | 10299 ft | 372 kts | 187° |
| 2026-04-23 13:33 | 30.79876 | 104.40692 | 10154 ft | 371 kts | 207° |
| 2026-04-23 13:34 | 30.77857 | 104.38860 | 10035 ft | 370 kts | 228° |
| 2026-04-23 13:34 | 30.76524 | 104.36318 | 9936 ft | 370 kts | 248° |
| 2026-04-23 13:34 | 30.76016 | 104.33400 | 9870 ft | 368 kts | 265° |
| 2026-04-23 13:34 | 30.75816 | 104.30427 | 9801 ft | 371 kts | 265° |
| 2026-04-23 13:35 | 30.75610 | 104.27523 | 9685 ft | 345 kts | 265° |
| 2026-04-23 13:35 | 30.75403 | 104.24860 | 9509 ft | 319 kts | 265° |
| 2026-04-23 13:35 | 30.75212 | 104.22412 | 9302 ft | 298 kts | 265° |
| 2026-04-23 13:35 | 30.75174 | 104.20065 | 9062 ft | 287 kts | 279° |
| 2026-04-23 13:36 | 30.75843 | 104.17898 | 8831 ft | 286 kts | 298° |
| 2026-04-23 13:36 | 30.76747 | 104.15907 | 8612 ft | 271 kts | 297° |
| 2026-04-23 13:36 | 30.77601 | 104.13995 | 8324 ft | 261 kts | 297° |
| 2026-04-23 13:36 | 30.78399 | 104.12137 | 8020 ft | 253 kts | 296° |
| 2026-04-23 13:37 | 30.79153 | 104.10352 | 7824 ft | 235 kts | 296° |
| 2026-04-23 13:37 | 30.79848 | 104.08714 | 7660 ft | 218 kts | 296° |
| 2026-04-23 13:37 | 30.80502 | 104.07168 | 7473 ft | 209 kts | 294° |
| 2026-04-23 13:37 | 30.80622 | 104.05540 | 7239 ft | 203 kts | 256° |
| 2026-04-23 13:38 | 30.79875 | 104.04203 | 7019 ft | 198 kts | 218° |
| 2026-04-23 13:38 | 30.78609 | 104.03706 | 6815 ft | 193 kts | 179° |
| 2026-04-23 13:38 | 30.77386 | 104.04227 | 6621 ft | 188 kts | 140° |
| 2026-04-23 13:38 | 30.76747 | 104.05505 | 6436 ft | 185 kts | 99° |
| 2026-04-23 13:39 | 30.76974 | 104.06932 | 6271 ft | 182 kts | 58° |
| 2026-04-23 13:39 | 30.77935 | 104.07806 | 6117 ft | 177 kts | 16° |
| 2026-04-23 13:39 | 30.79121 | 104.07695 | 5975 ft | 173 kts | 332° |
| 2026-04-23 13:39 | 30.79894 | 104.06674 | 5861 ft | 174 kts | 288° |
| 2026-04-23 13:40 | 30.79832 | 104.05301 | 5789 ft | 174 kts | 244° |
| 2026-04-23 13:40 | 30.78985 | 104.04368 | 5725 ft | 169 kts | 205° |
| 2026-04-23 13:40 | 30.77916 | 104.03875 | 5718 ft | 160 kts | 200° |
| 2026-04-23 13:40 | 30.76896 | 104.03424 | 5655 ft | 156 kts | 201° |
| 2026-04-23 13:41 | 30.75880 | 104.02972 | 5523 ft | 158 kts | 201° |
| 2026-04-23 13:41 | 30.74836 | 104.02504 | 5359 ft | 163 kts | 201° |
| 2026-04-23 13:41 | 30.73783 | 104.02036 | 5132 ft | 160 kts | 201° |
| 2026-04-23 13:41 | 30.72753 | 104.01584 | 4861 ft | 157 kts | 201° |
| 2026-04-23 13:42 | 30.71758 | 104.01126 | 4600 ft | 149 kts | 202° |
| 2026-04-23 13:42 | 30.71580 | 104.01042 | 4557 ft | 148 kts | 202° |
| 2026-04-23 13:43 | 30.70734 | 104.00642 | 4335 ft | 150 kts | 202° |
| 2026-04-23 13:43 | 30.69761 | 104.00186 | 4109 ft | 150 kts | 202° |
| 2026-04-23 13:43 | 30.68799 | 103.99740 | 3837 ft | 149 kts | 201° |
| 2026-04-23 13:44 | 30.67821 | 103.99285 | 3511 ft | 153 kts | 202° |
| 2026-04-23 13:44 | 30.66834 | 103.98827 | 3203 ft | 151 kts | 201° |
| 2026-04-23 13:44 | 30.65891 | 103.98396 | 3048 ft | 142 kts | 201° |
| 2026-04-23 13:44 | 30.64995 | 103.97989 | 2893 ft | 140 kts | 201° |
| 2026-04-23 13:45 | 30.64788 | 103.97895 | 2842 ft | 141 kts | 201° |
| 2026-04-23 13:45 | 30.63564 | 103.97335 | 2517 ft | 144 kts | 201° |
| 2026-04-23 13:45 | 30.62633 | 103.96904 | 2306 ft | 144 kts | 202° |
| 2026-04-23 13:45 | 30.61708 | 103.96479 | 2091 ft | 142 kts | 201° |
| 2026-04-23 13:46 | 30.60800 | 103.96065 | 1891 ft | 141 kts | 201° |
| 2026-04-23 13:46 | 30.59874 | 103.95639 | 1752 ft | 144 kts | 201° |
| 2026-04-23 13:46 | 30.58955 | 103.95214 | 1675 ft | 138 kts | 201° |
| 2026-04-23 13:46 | 30.58162 | 103.94845 | 1647 ft | 97 kts | 200° |
| 2026-04-23 13:47 | 30.57772 | 103.94666 | 1647 ft | 30 kts | 202° |
| 2026-04-23 13:47 | 30.57686 | 103.94626 | 1647 ft | 8 kts | 201° |
| 2026-04-23 13:47 | 30.57642 | 103.94615 | 1646 ft | 7 kts | 188° |
| 2026-04-23 13:47 | 30.57556 | 103.94606 | 1646 ft | 17 kts | 182° |
| 2026-04-23 13:48 | 30.57410 | 103.94623 | 1647 ft | 25 kts | 171° |
| 2026-04-23 13:48 | 30.57227 | 103.94626 | 1647 ft | 24 kts | 199° |
| 2026-04-23 13:48 | 30.57163 | 103.94597 | 1647 ft | 5 kts | 202° |
| 2026-04-23 13:48 | 30.57144 | 103.94588 | 1647 ft | 1 kts | 202° |